createdAt,value
2022-11-12T00:01:57.634Z,4.00
2022-11-12T00:04:43.019Z,3.90
2022-11-12T00:07:28.129Z,3.80
2022-11-12T00:10:13.652Z,3.80
2022-11-12T00:12:59.745Z,3.80
2022-11-12T00:15:46.627Z,3.70
2022-11-12T00:18:31.871Z,3.70
2022-11-12T00:21:17.428Z,3.60
2022-11-12T00:24:02.833Z,3.50
2022-11-12T00:26:48.193Z,3.40
2022-11-12T00:29:33.457Z,3.30
2022-11-12T00:32:19.774Z,3.20
2022-11-12T00:35:07.770Z,3.20
2022-11-12T00:37:57.767Z,3.40
2022-11-12T00:40:43.429Z,3.50
2022-11-12T00:43:28.975Z,3.50
2022-11-12T00:46:14.402Z,3.40
2022-11-12T00:49:00.290Z,3.40
2022-11-12T00:51:45.872Z,3.40
2022-11-12T00:54:31.156Z,3.20
2022-11-12T00:57:16.549Z,3.10
2022-11-12T01:00:02.316Z,3.20
2022-11-12T01:02:50.963Z,3.10
2022-11-12T01:05:37.023Z,3.10
2022-11-12T01:08:22.344Z,3.10
2022-11-12T01:11:17.450Z,3.10
2022-11-12T01:14:06.151Z,3.10
2022-11-12T01:16:51.664Z,3.00
2022-11-12T01:19:37.087Z,3.10
2022-11-12T01:22:23.228Z,3.10
2022-11-12T01:25:08.742Z,3.20
2022-11-12T01:27:54.060Z,3.20
2022-11-12T01:30:39.545Z,3.10
2022-11-12T01:33:24.697Z,2.90
2022-11-12T01:36:11.685Z,3.00
2022-11-12T01:38:56.928Z,2.90
2022-11-12T01:41:42.679Z,2.70
2022-11-12T01:44:31.797Z,2.70
2022-11-12T01:47:22.183Z,2.70
2022-11-12T01:50:26.099Z,2.70
2022-11-12T01:53:13.697Z,2.60
2022-11-12T01:56:00.964Z,2.60
2022-11-12T01:58:49.334Z,2.50
2022-11-12T02:01:36.700Z,2.60
2022-11-12T02:04:22.858Z,2.50
2022-11-12T02:07:09.773Z,2.40
2022-11-12T02:09:56.687Z,2.40
2022-11-12T02:13:01.431Z,2.20
2022-11-12T02:15:46.969Z,2.50
2022-11-12T02:18:32.369Z,2.50
2022-11-12T02:21:22.929Z,2.40
2022-11-12T02:24:14.224Z,2.30
2022-11-12T02:27:00.131Z,2.30
2022-11-12T02:29:48.599Z,2.40
2022-11-12T02:32:33.803Z,2.30
2022-11-12T02:35:19.405Z,2.50
2022-11-12T02:38:06.154Z,2.60
2022-11-12T02:40:52.128Z,2.70
2022-11-12T02:43:37.717Z,2.60
2022-11-12T02:46:23.603Z,2.40
2022-11-12T02:49:09.274Z,2.20
2022-11-12T02:51:54.696Z,2.10
2022-11-12T02:54:40.243Z,2.00
2022-11-12T02:57:25.808Z,1.90
2022-11-12T03:00:13.070Z,2.10
2022-11-12T03:03:01.354Z,2.20
2022-11-12T03:05:55.574Z,2.20
2022-11-12T03:08:40.926Z,2.20
2022-11-12T03:11:27.324Z,2.10
2022-11-12T03:14:12.356Z,2.10
2022-11-12T03:16:57.994Z,2.10
2022-11-12T03:19:43.517Z,2.00
2022-11-12T03:22:29.176Z,1.90
2022-11-12T03:25:14.480Z,1.80
2022-11-12T03:28:09.502Z,1.80
2022-11-12T03:30:58.870Z,1.70
2022-11-12T03:33:44.132Z,1.90
2022-11-12T03:36:29.771Z,2.00
2022-11-12T03:39:15.077Z,1.90
2022-11-12T03:42:00.579Z,1.90
2022-11-12T03:44:46.548Z,1.80
2022-11-12T03:47:31.845Z,1.70
2022-11-12T03:50:19.778Z,1.60
2022-11-12T03:53:04.871Z,1.60
2022-11-12T03:55:50.558Z,1.80
2022-11-12T03:58:35.874Z,1.80
2022-11-12T04:01:21.286Z,1.70
2022-11-12T04:04:07.128Z,1.70
2022-11-12T04:07:11.074Z,1.60
2022-11-12T04:09:56.428Z,1.50
2022-11-12T04:13:08.062Z,1.40
2022-11-12T04:16:18.319Z,1.40
2022-11-12T04:19:23.692Z,1.30
2022-11-12T04:22:11.336Z,1.40
2022-11-12T04:25:15.255Z,1.40
2022-11-12T04:28:00.777Z,1.40
2022-11-12T04:30:45.973Z,1.50
2022-11-12T04:33:31.420Z,1.40
2022-11-12T04:36:16.965Z,1.40
2022-11-12T04:39:02.640Z,1.40
2022-11-12T04:42:06.933Z,1.30
2022-11-12T04:45:02.424Z,1.30
2022-11-12T04:47:47.781Z,1.20
2022-11-12T04:50:33.957Z,1.30
2022-11-12T04:53:19.312Z,1.40
2022-11-12T04:56:04.595Z,1.80
2022-11-12T04:58:50.319Z,2.00
2022-11-12T05:01:35.599Z,2.10
2022-11-12T05:04:22.008Z,2.00
2022-11-12T05:07:07.857Z,2.10
2022-11-12T05:09:53.439Z,2.10
2022-11-12T05:12:38.886Z,2.10
2022-11-12T05:15:24.976Z,2.20
2022-11-12T05:18:10.275Z,2.30
2022-11-12T05:20:55.872Z,2.40
2022-11-12T05:23:41.539Z,2.40
2022-11-12T05:26:27.044Z,2.60
2022-11-12T05:29:12.597Z,2.50
2022-11-12T05:31:58.065Z,2.40
2022-11-12T05:34:43.472Z,2.20
2022-11-12T05:37:28.827Z,2.10
2022-11-12T05:40:14.372Z,1.90
2022-11-12T05:42:59.900Z,1.70
2022-11-12T05:45:45.367Z,1.60
2022-11-12T05:48:31.782Z,1.60
2022-11-12T05:51:17.351Z,1.60
2022-11-12T05:54:03.283Z,1.60
2022-11-12T05:56:48.877Z,1.50
2022-11-12T05:59:34.419Z,1.40
2022-11-12T06:02:19.991Z,1.40
2022-11-12T06:05:05.777Z,1.50
2022-11-12T06:07:51.236Z,1.70
2022-11-12T06:10:36.882Z,1.70
2022-11-12T06:13:24.971Z,1.90
2022-11-12T06:16:10.470Z,1.80
2022-11-12T06:18:56.155Z,1.70
2022-11-12T06:21:41.722Z,1.60
2022-11-12T06:24:34.737Z,1.50
2022-11-12T06:27:21.270Z,1.40
2022-11-12T06:30:07.451Z,1.40
2022-11-12T06:32:52.736Z,1.50
2022-11-12T06:35:42.596Z,1.50
2022-11-12T06:38:30.095Z,1.50
2022-11-12T06:41:16.007Z,1.50
2022-11-12T06:44:03.495Z,1.40
2022-11-12T06:46:49.151Z,1.50
2022-11-12T06:49:34.350Z,1.50
2022-11-12T06:52:19.792Z,1.60
2022-11-12T06:55:05.735Z,1.70
2022-11-12T06:57:54.241Z,1.80
2022-11-12T07:00:39.855Z,1.90
2022-11-12T07:03:25.277Z,2.20
2022-11-12T07:06:19.206Z,2.50
2022-11-12T07:09:05.340Z,2.70
2022-11-12T07:11:50.622Z,2.80
2022-11-12T07:14:35.811Z,2.70
2022-11-12T07:17:21.605Z,2.60
2022-11-12T07:20:07.982Z,2.60
2022-11-12T07:22:53.527Z,2.50
2022-11-12T07:25:39.094Z,2.40
2022-11-12T07:28:26.154Z,2.40
2022-11-12T07:31:13.520Z,2.50
2022-11-12T07:33:58.927Z,2.70
2022-11-12T07:36:44.341Z,2.70
2022-11-12T07:39:29.735Z,2.70
2022-11-12T07:42:15.347Z,2.70
2022-11-12T07:45:01.027Z,2.60
2022-11-12T07:47:46.466Z,2.60
2022-11-12T07:50:31.599Z,2.70
2022-11-12T07:53:17.140Z,2.60
2022-11-12T07:56:04.706Z,2.60
2022-11-12T07:58:50.595Z,2.60
2022-11-12T08:01:38.867Z,2.70
2022-11-12T08:04:24.373Z,2.90
2022-11-12T08:07:09.951Z,3.10
2022-11-12T08:09:55.467Z,3.20
2022-11-12T08:12:40.863Z,3.20
2022-11-12T08:15:26.259Z,3.10
2022-11-12T08:18:11.801Z,3.00
2022-11-12T08:21:01.648Z,3.00
2022-11-12T08:23:46.889Z,3.10
2022-11-12T08:26:32.652Z,3.10
2022-11-12T08:29:18.446Z,3.20
2022-11-12T08:32:03.788Z,3.30
2022-11-12T08:34:49.237Z,3.50
2022-11-12T08:37:34.736Z,3.60
2022-11-12T08:40:20.224Z,3.70
2022-11-12T08:43:07.812Z,3.90
2022-11-12T08:45:53.425Z,3.80
2022-11-12T08:48:40.164Z,3.80
2022-11-12T08:51:25.903Z,3.70
2022-11-12T08:54:11.431Z,3.80
2022-11-12T08:56:57.035Z,4.00
2022-11-12T08:59:42.431Z,4.20
2022-11-12T09:02:27.863Z,4.40
2022-11-12T09:05:13.364Z,4.60
2022-11-12T09:08:04.236Z,4.70
2022-11-12T09:10:50.842Z,4.70
2022-11-12T09:13:36.397Z,4.80
2022-11-12T09:16:21.897Z,4.90
2022-11-12T09:19:07.424Z,4.90
2022-11-12T09:21:52.777Z,4.90
2022-11-12T09:24:38.240Z,5.00
2022-11-12T09:27:23.680Z,5.00
2022-11-12T09:30:09.499Z,5.10
2022-11-12T09:32:58.867Z,5.20
2022-11-12T09:35:45.603Z,5.40
2022-11-12T09:38:31.892Z,5.60
2022-11-12T09:41:28.349Z,6.00
2022-11-12T09:44:20.909Z,6.40
2022-11-12T09:47:20.791Z,7.00
2022-11-12T09:50:15.037Z,7.60
2022-11-12T09:53:23.012Z,8.10
2022-11-12T09:56:13.242Z,8.60
2022-11-12T09:58:58.925Z,9.00
2022-11-12T10:01:50.128Z,9.00
2022-11-12T10:04:59.084Z,9.00
2022-11-12T10:07:56.262Z,9.20
2022-11-12T10:11:02.445Z,9.20
2022-11-12T10:14:04.454Z,9.10
2022-11-12T10:17:09.558Z,9.00
2022-11-12T10:20:26.594Z,9.10
2022-11-12T10:23:22.957Z,9.00
2022-11-12T10:26:17.846Z,9.10
2022-11-12T10:29:13.100Z,9.20
2022-11-12T10:32:02.132Z,9.20
2022-11-12T10:34:47.643Z,9.30
2022-11-12T10:38:06.446Z,9.20
2022-11-12T10:40:52.548Z,9.30
2022-11-12T10:43:39.316Z,9.80
2022-11-12T10:46:36.008Z,10.00
2022-11-12T10:49:25.557Z,10.00
2022-11-12T10:52:25.951Z,10.10
2022-11-12T10:55:24.008Z,10.10
2022-11-12T10:58:12.645Z,10.20
2022-11-12T11:01:05.160Z,10.20
2022-11-12T11:03:58.147Z,10.40
2022-11-12T11:06:44.449Z,10.60
2022-11-12T11:09:30.900Z,10.50
2022-11-12T11:12:24.635Z,10.70
2022-11-12T11:15:16.966Z,10.70
2022-11-12T11:18:03.314Z,10.60
2022-11-12T11:20:59.621Z,10.40
2022-11-12T11:24:26.119Z,10.40
2022-11-12T11:27:41.052Z,10.30
2022-11-12T11:30:30.793Z,10.50
2022-11-12T11:33:19.946Z,10.80
2022-11-12T11:36:12.488Z,11.10
2022-11-12T11:39:03.996Z,11.40
2022-11-12T11:42:16.114Z,11.60
2022-11-12T11:45:31.633Z,11.80
2022-11-12T11:48:29.746Z,12.10
2022-11-12T11:51:26.151Z,12.30
2022-11-12T11:54:44.217Z,12.60
2022-11-12T11:57:44.831Z,12.70
2022-11-12T12:01:02.642Z,12.90
2022-11-12T12:04:25.411Z,12.70
2022-11-12T12:07:17.141Z,13.20
2022-11-12T12:10:12.697Z,13.00
2022-11-12T12:13:16.082Z,13.00
2022-11-12T12:16:22.132Z,13.10
2022-11-12T12:19:35.305Z,13.60
2022-11-12T12:22:44.347Z,13.50
2022-11-12T12:25:40.465Z,13.80
2022-11-12T12:28:44.855Z,14.10
2022-11-12T12:31:37.745Z,14.20
2022-11-12T12:34:39.375Z,14.30
2022-11-12T12:37:42.992Z,14.30
2022-11-12T12:40:41.576Z,14.70
2022-11-12T12:43:35.155Z,14.90
2022-11-12T12:46:25.788Z,14.80
2022-11-12T12:49:28.456Z,14.60
2022-11-12T12:52:15.901Z,14.60
2022-11-12T12:55:01.449Z,14.90
2022-11-12T12:57:46.981Z,15.10
2022-11-12T13:00:35.676Z,15.00
2022-11-12T13:03:43.736Z,14.70
2022-11-12T13:06:37.941Z,14.70
2022-11-12T13:09:27.426Z,14.50
2022-11-12T13:12:16.886Z,14.10
2022-11-12T13:15:15.960Z,13.60
2022-11-12T13:18:02.211Z,13.20
2022-11-12T13:21:14.933Z,12.80
2022-11-12T13:24:09.312Z,12.60
2022-11-12T13:27:00.373Z,12.40
2022-11-12T13:29:47.566Z,12.20
2022-11-12T13:32:48.975Z,12.10
2022-11-12T13:35:41.497Z,12.00
2022-11-12T13:38:27.637Z,11.80
2022-11-12T13:41:40.706Z,11.70
2022-11-12T13:44:27.933Z,11.60
2022-11-12T13:47:21.912Z,11.60
2022-11-12T13:50:10.089Z,11.70
2022-11-12T13:52:56.441Z,11.70
2022-11-12T13:55:49.272Z,11.70
2022-11-12T13:58:37.065Z,11.60
2022-11-12T14:01:24.868Z,11.60
2022-11-12T14:04:15.756Z,11.60
2022-11-12T14:07:14.661Z,11.60
2022-11-12T14:10:20.361Z,11.50
2022-11-12T14:13:18.845Z,11.50
2022-11-12T14:16:38.088Z,11.30
2022-11-12T14:20:02.382Z,11.10
2022-11-12T14:22:49.082Z,11.00
2022-11-12T14:25:35.275Z,10.90
2022-11-12T14:28:29.638Z,10.80
2022-11-12T14:31:24.106Z,10.80
2022-11-12T14:34:27.061Z,10.70
2022-11-12T14:37:41.407Z,10.60
2022-11-12T14:40:31.228Z,10.50
2022-11-12T14:43:33.821Z,10.40
2022-11-12T14:46:44.415Z,10.30
2022-11-12T14:49:43.983Z,10.20
2022-11-12T14:52:37.569Z,10.10
2022-11-12T14:55:27.865Z,10.10
2022-11-12T14:58:18.463Z,10.00
2022-11-12T15:02:08.796Z,9.90
2022-11-12T15:04:42.782Z,9.80
2022-11-12T15:07:33.962Z,9.70
2022-11-12T15:10:45.559Z,9.70
2022-11-12T15:13:40.082Z,9.60
2022-11-12T15:16:35.002Z,9.50
2022-11-12T15:19:29.997Z,9.30
2022-11-12T15:22:23.680Z,9.20
2022-11-12T15:25:19.943Z,9.10
2022-11-12T15:28:23.909Z,8.80
2022-11-12T15:31:19.377Z,8.70
2022-11-12T15:34:32.031Z,8.50
2022-11-12T15:37:28.735Z,8.30
2022-11-12T15:40:21.461Z,8.20
2022-11-12T15:43:14.920Z,8.00
2022-11-12T15:46:01.003Z,8.00
2022-11-12T15:48:49.242Z,8.00
2022-11-12T15:51:38.841Z,8.00
2022-11-12T15:54:24.815Z,7.90
2022-11-12T15:57:26.424Z,7.60
2022-11-12T16:00:20.598Z,7.40
2022-11-12T16:03:18.235Z,7.30
2022-11-12T16:06:09.054Z,7.20
2022-11-12T16:08:55.387Z,7.00
2022-11-12T16:11:41.531Z,6.80
2022-11-12T16:14:28.304Z,6.60
2022-11-12T16:17:16.739Z,6.50
2022-11-12T16:20:02.125Z,6.50
2022-11-12T16:22:49.242Z,6.40
2022-11-12T16:25:37.809Z,6.40
2022-11-12T16:28:23.826Z,6.20
2022-11-12T16:31:10.256Z,6.10
2022-11-12T16:34:00.781Z,6.00
2022-11-12T16:36:48.606Z,5.90
2022-11-12T16:39:34.499Z,5.80
2022-11-12T16:42:20.886Z,5.70
2022-11-12T16:45:06.911Z,5.60
2022-11-12T16:47:55.864Z,5.50
2022-11-12T16:50:42.283Z,5.60
2022-11-12T16:53:28.212Z,5.70
2022-11-12T16:56:22.459Z,5.50
2022-11-12T16:59:11.704Z,5.40
2022-11-12T17:01:57.046Z,5.30
2022-11-12T17:04:42.460Z,5.20
2022-11-12T17:07:28.598Z,5.20
2022-11-12T17:10:15.448Z,5.20
2022-11-12T17:13:01.203Z,5.10
2022-11-12T17:15:47.229Z,5.10
2022-11-12T17:18:33.361Z,5.20
2022-11-12T17:21:20.214Z,5.20
2022-11-12T17:24:06.134Z,5.40
2022-11-12T17:26:52.186Z,5.50
2022-11-12T17:29:38.255Z,5.20
2022-11-12T17:32:25.209Z,5.00
2022-11-12T17:35:10.811Z,4.90
2022-11-12T17:37:56.663Z,4.80
2022-11-12T17:40:42.738Z,5.00
2022-11-12T17:43:30.075Z,5.00
2022-11-12T17:46:16.455Z,5.00
2022-11-12T17:49:02.534Z,5.10
2022-11-12T17:51:48.598Z,5.00
2022-11-12T17:54:35.800Z,5.20
2022-11-12T17:57:21.225Z,5.60
2022-11-12T18:00:07.983Z,5.60
2022-11-12T18:02:56.305Z,5.00
2022-11-12T18:05:41.756Z,4.70
2022-11-12T18:08:27.764Z,4.50
2022-11-12T18:11:15.734Z,4.40
2022-11-12T18:14:08.179Z,4.40
2022-11-12T18:16:54.061Z,4.40
2022-11-12T18:19:40.350Z,4.30
2022-11-12T18:22:26.615Z,4.20
2022-11-12T18:25:13.913Z,4.10
2022-11-12T18:27:59.787Z,4.10
2022-11-12T18:30:45.865Z,4.30
2022-11-12T18:33:32.346Z,4.40
2022-11-12T18:36:21.718Z,4.50
2022-11-12T18:39:07.788Z,4.70
2022-11-12T18:41:54.848Z,4.70
2022-11-12T18:44:41.397Z,4.50
2022-11-12T18:47:29.482Z,4.30
2022-11-12T18:50:15.797Z,4.20
2022-11-12T18:53:01.787Z,4.20
2022-11-12T18:55:47.535Z,4.20
2022-11-12T18:58:35.330Z,4.20
2022-11-12T19:01:23.781Z,4.20
2022-11-12T19:04:11.766Z,4.10
2022-11-12T19:06:57.679Z,4.10
2022-11-12T19:09:43.128Z,4.20
2022-11-12T19:12:30.323Z,4.30
2022-11-12T19:15:16.742Z,4.30
2022-11-12T19:18:02.950Z,4.40
2022-11-12T19:20:49.589Z,4.40
2022-11-12T19:23:35.771Z,4.50
2022-11-12T19:26:23.238Z,4.50
2022-11-12T19:29:09.100Z,4.40
2022-11-12T19:31:55.221Z,4.40
2022-11-12T19:34:40.961Z,4.20
2022-11-12T19:37:33.590Z,4.30
2022-11-12T19:40:20.318Z,4.30
2022-11-12T19:43:06.394Z,4.30
2022-11-12T19:45:52.259Z,4.30
2022-11-12T19:48:38.636Z,4.40
2022-11-12T19:51:25.439Z,4.40
2022-11-12T19:54:11.629Z,4.40
2022-11-12T19:56:57.826Z,4.40
2022-11-12T19:59:43.902Z,4.50
2022-11-12T20:02:30.362Z,4.50
2022-11-12T20:05:16.507Z,4.50
2022-11-12T20:08:02.017Z,4.50
2022-11-12T20:10:47.823Z,4.70
2022-11-12T20:13:34.366Z,4.80
2022-11-12T20:16:25.252Z,4.80
2022-11-12T20:19:12.554Z,4.60
2022-11-12T20:21:58.208Z,4.60
2022-11-12T20:24:43.925Z,4.50
2022-11-12T20:27:29.940Z,4.50
2022-11-12T20:30:15.930Z,4.40
2022-11-12T20:33:01.822Z,4.40
2022-11-12T20:35:47.959Z,4.40
2022-11-12T20:38:38.561Z,4.30
2022-11-12T20:41:26.249Z,4.30
2022-11-12T20:44:12.153Z,4.20
2022-11-12T20:46:57.662Z,4.20
2022-11-12T20:49:43.240Z,4.30
2022-11-12T20:52:29.315Z,4.30
2022-11-12T20:55:15.050Z,4.30
2022-11-12T20:58:00.551Z,4.20
2022-11-12T21:00:46.350Z,4.10
2022-11-12T21:03:32.199Z,4.00
2022-11-12T21:06:21.008Z,4.10
2022-11-12T21:09:07.048Z,4.30
2022-11-12T21:11:53.317Z,4.50
2022-11-12T21:14:39.346Z,4.70
2022-11-12T21:17:25.359Z,4.80
2022-11-12T21:20:11.693Z,4.70
2022-11-12T21:22:57.653Z,4.40
2022-11-12T21:25:43.654Z,4.20
2022-11-12T21:28:30.200Z,4.00
2022-11-12T21:31:18.602Z,3.90
2022-11-12T21:34:04.915Z,4.10
2022-11-12T21:36:50.404Z,4.20
2022-11-12T21:39:36.664Z,4.10
2022-11-12T21:42:22.162Z,3.90
2022-11-12T21:45:08.494Z,3.70
2022-11-12T21:47:54.108Z,3.60
2022-11-12T21:50:40.689Z,3.60
2022-11-12T21:53:27.202Z,3.60
2022-11-12T21:56:15.098Z,3.70
2022-11-12T21:59:01.640Z,3.90
2022-11-12T22:01:47.160Z,4.00
2022-11-12T22:04:33.710Z,3.90
2022-11-12T22:07:19.739Z,3.80
2022-11-12T22:10:06.150Z,3.70
2022-11-12T22:13:19.941Z,3.70
2022-11-12T22:15:57.860Z,3.70
2022-11-12T22:18:45.321Z,3.70
2022-11-12T22:21:38.390Z,3.70
2022-11-12T22:24:30.857Z,3.70
2022-11-12T22:27:16.311Z,3.70
2022-11-12T22:30:01.925Z,3.70
2022-11-12T22:32:47.301Z,3.70
2022-11-12T22:35:33.374Z,3.70
2022-11-12T22:38:18.850Z,3.70
2022-11-12T22:41:07.446Z,3.70
2022-11-12T22:43:54.714Z,3.60
2022-11-12T22:46:40.125Z,3.70
2022-11-12T22:49:25.626Z,3.60
2022-11-12T22:52:11.433Z,3.70
2022-11-12T22:54:56.833Z,3.70
2022-11-12T22:57:42.401Z,3.70
2022-11-12T23:00:32.138Z,3.70
2022-11-12T23:03:17.393Z,3.70
2022-11-12T23:06:05.796Z,3.70
2022-11-12T23:08:52.546Z,3.60
2022-11-12T23:11:38.288Z,3.60
2022-11-12T23:14:23.881Z,3.70
2022-11-12T23:17:09.147Z,3.70
2022-11-12T23:19:54.691Z,3.70
2022-11-12T23:22:39.900Z,3.70
2022-11-12T23:25:25.414Z,3.60
2022-11-12T23:28:10.581Z,3.50
2022-11-12T23:30:56.206Z,3.50
2022-11-12T23:33:46.400Z,3.40
2022-11-12T23:36:32.334Z,3.50
2022-11-12T23:39:17.898Z,3.50
2022-11-12T23:42:03.483Z,3.50
2022-11-12T23:44:48.900Z,3.60
2022-11-12T23:47:34.488Z,3.60
2022-11-12T23:50:19.946Z,3.60
2022-11-12T23:53:05.485Z,3.50
2022-11-12T23:55:51.029Z,3.70
2022-11-12T23:58:38.200Z,3.60
